Terminal Aerodrome Forecast
Issued by NWS Boston, MA

Current Version | Previous Version | Text Only | Print | Product List | Glossary On
Versions: 1 2 3 4 5 6 7 8 9 10 11 12 13 14 15 16 17 18 19 20 21 22 23 24 25 26 27 28 29 30 31 32 33 34 35 36 37 38 39 40 41 42 43 44 45
865 FTUS41 KBOX 271126 TAFPVD TAF KPVD 271126Z 2712/2812 15004KT P6SM FEW007 BKN150 FM271400 16008KT P6SM BKN090 FM272000 19009KT P6SM SCT090 WS020/24035KT FM280600 22006KT P6SM BKN070 WS020/24035KT FM280700 22006KT P6SM BKN070 FM280800 22005KT P6SM SCT070=

USA.gov is the U.S. government's official web portal to all federal, state and local government web resources and services.